メインページ
METAR-TAF:

METAR-TAF

空港 :

ブダペスト, ハンガリー

リスト・フェレンツ国際空港

緯度: 47-26N, 経度: 019-16E, 海抜: 151m

現時点の気象観測

当レポートは18分前の09:30(UTC)に作成
変向風 3kt
気温 12°C
湿度 47%
気圧 1027 hPa
視程10km以上
高度4500ftの雲はほとんどない
高度20000ftの千切れ雲あり

METAR: LHBP 250930Z VRB03KT 9999 FEW045 BKN200 12/01 Q1027 NOSIG

時間: 10:48 (09:48 UTC)

予報

当レポートは4時間48分前の05:00(UTC)に作成
予報は25日の 06時(UTC)から 26日の 06時(UTC)まで有効
北/北東の風 7kt
視程10km以上
1,500メートル以下は雲なし、積乱雲なし
25日の 06時(UTC)から 25日の 11時(UTC)まで一時的に
変向風 3kt
高度4700ftの雲は散在している
25日の 12時(UTC)から 25日の 14時(UTC)まで徐々に
西/北西の風 8kt
26日の 00時(UTC)から 26日の 03時(UTC)まで徐々に
の風 8kt

TAF: LHBP 250500Z 2506/2606 02007KT CAVOK TEMPO 2506/2511 VRB03KT SCT047 BECMG 2512/2514 29008KT BECMG 2600/2603 01008KT

4,000以上の空港の気象観測と天気予報(METAR報とTAF報)

利用可能な観測所は地図上に黄色い丸と赤い丸で示す。

丸の上にカーソルを重ねると観測所名を参照できる。

次にクリックすると気象観測と天気予報を参照できる。

マップの切り替え:黒色「×」印の緑ボタンをクリックして拡大、「-」印の緑ボタンをクリックして縮小、緑色の三角印をクリックして隣りの地図に切り替え


METAR-TAF: